This is the latest recevied weather packets stored in our database for station/object K7MT-WX. If no packets are shown the sender has not sent any weather packets the latest 10 day(s).
| Time | Temp. | Humidity | Pressure | Rain* | Wind** | Luminosity | Snow |
|---|---|---|---|---|---|---|---|
| 1788230075 | 18.89° C | 44% | 1013.2 hPa | 0 mm | - | - | - |
| 1788229175 | 20.56° C | 41% | 1013 hPa | 0 mm | - | - | - |
| 1788228275 | 22.22° C | 32% | 1012.9 hPa | 0 mm | - | - | - |
| 1788227375 | 23.89° C | 32% | 1012.8 hPa | 0 mm | - | - | - |
| 1788226475 | 24.44° C | 29% | 1012.7 hPa | 0 mm | - | - | - |
| 1788225575 | 25° C | 28% | 1013 hPa | 0 mm | - | - | - |
| 1788224675 | 25° C | 29% | 1013 hPa | 0 mm | - | - | - |
| 1788223745 | 25.56° C | 27% | 1013.1 hPa | 0 mm | - | - | - |
| 1788222845 | 26.11° C | 27% | 1013.3 hPa | 0 mm | - | - | - |
| 1788221945 | 26.11° C | 25% | 1013.4 hPa | 0 mm | - | - | - |
| 1788221045 | 26.11° C | 25% | 1013.6 hPa | 0 mm | - | - | - |
| 1788220145 | 26.11° C | 25% | 1013.7 hPa | 0 mm | - | - | - |
| 1788219245 | 26.11° C | 24% | 1013.9 hPa | 0 mm | - | - | - |
| 1788218345 | 26.11° C | 25% | 1014 hPa | 0 mm | - | - | - |
| 1788217445 | 26.11° C | 27% | 1014.2 hPa | 0 mm | - | - | - |
| 1788216545 | 26.11° C | 28% | 1014.2 hPa | 0 mm | - | - | - |
| 1788215615 | 25.56° C | 27% | 1014.3 hPa | 0 mm | - | - | - |
| 1788214715 | 25.56° C | 27% | 1014.4 hPa | 0 mm | - | - | - |
| 1788213815 | 25.56° C | 28% | 1014.7 hPa | 0 mm | - | - | - |
| 1788212915 | 25° C | 28% | 1015 hPa | 0 mm | - | - | - |
| 1788212015 | 24.44° C | 28% | 1015.2 hPa | 0 mm | - | - | - |
| 1788211115 | 24.44° C | 27% | 1015.4 hPa | 0 mm | - | - | - |
| 1788210215 | 24.44° C | 26% | 1015.6 hPa | 0 mm | - | - | - |
| 1788209315 | 23.89° C | 26% | 1015.8 hPa | 0 mm | - | - | - |
| 1788208415 | 23.89° C | 27% | 1015.9 hPa | 0 mm | - | - | - |
* Rain latest hour (hover to see other rain measurements)
** Current wind speed in m/s (hover to see current wind gust speed)